createdAt,value
2018-05-23T00:00:18.749Z,12.37
2018-05-23T00:02:46.251Z,14.80
2018-05-23T00:05:13.705Z,12.30
2018-05-23T00:07:41.189Z,16.30
2018-05-23T00:10:08.672Z,13.57
2018-05-23T00:12:36.145Z,13.30
2018-05-23T00:15:03.635Z,16.60
2018-05-23T00:17:31.102Z,16.70
2018-05-23T00:19:58.572Z,18.43
2018-05-23T00:22:26.061Z,16.80
2018-05-23T00:24:53.524Z,17.97
2018-05-23T00:27:20.975Z,15.10
2018-05-23T00:29:48.489Z,21.47
2018-05-23T00:32:15.958Z,17.23
2018-05-23T00:34:43.416Z,19.30
2018-05-23T00:37:11.149Z,35.13
2018-05-23T00:39:38.671Z,20.70
2018-05-23T00:42:06.432Z,17.40
2018-05-23T00:44:33.901Z,21.10
2018-05-23T00:47:01.378Z,17.27
2018-05-23T00:49:29.648Z,16.23
2018-05-23T00:51:57.111Z,22.93
2018-05-23T00:54:25.369Z,16.13
2018-05-23T00:56:52.835Z,19.30
2018-05-23T00:59:20.303Z,16.17
2018-05-23T01:01:48.560Z,16.47
2018-05-23T01:04:16.069Z,15.90
2018-05-23T01:06:43.572Z,22.53
2018-05-23T01:09:11.061Z,18.60
2018-05-23T01:11:39.285Z,17.90
2018-05-23T01:14:06.761Z,17.03
2018-05-23T01:16:34.224Z,21.47
2018-05-23T01:19:01.729Z,15.80
2018-05-23T01:21:29.194Z,16.27
2018-05-23T01:23:56.674Z,15.03
2018-05-23T01:26:24.166Z,14.63
2018-05-23T01:28:52.406Z,14.60
2018-05-23T01:31:19.893Z,15.47
2018-05-23T01:33:47.370Z,13.63
2018-05-23T01:36:15.609Z,15.30
2018-05-23T01:38:43.113Z,17.83
2018-05-23T01:41:11.364Z,17.80
2018-05-23T01:43:39.582Z,13.47
2018-05-23T01:46:07.853Z,22.67
2018-05-23T01:48:47.301Z,15.13
2018-05-23T01:51:14.784Z,15.60
2018-05-23T01:53:42.246Z,16.10
2018-05-23T01:56:09.745Z,13.93
2018-05-23T01:58:37.994Z,18.33
2018-05-23T02:01:05.484Z,18.63
2018-05-23T02:03:33.724Z,17.60
2018-05-23T02:06:01.239Z,18.47
2018-05-23T02:08:28.705Z,16.93
2018-05-23T02:10:56.160Z,23.20
2018-05-23T02:13:23.628Z,14.27
2018-05-23T02:15:51.117Z,19.87
2018-05-23T02:18:18.567Z,20.93
2018-05-23T02:20:46.078Z,19.90
2018-05-23T02:23:13.518Z,14.97
2018-05-23T02:25:41.000Z,15.63
2018-05-23T02:28:08.461Z,16.90
2018-05-23T02:30:35.954Z,17.87
2018-05-23T02:33:03.433Z,16.80
2018-05-23T02:35:31.708Z,20.83
2018-05-23T02:37:59.929Z,14.63
2018-05-23T02:40:27.416Z,15.03
2018-05-23T02:42:54.897Z,17.23
2018-05-23T02:45:22.369Z,27.77
2018-05-23T02:47:50.610Z,14.83
2018-05-23T02:50:18.100Z,16.40
2018-05-23T02:52:46.330Z,15.53
2018-05-23T02:55:13.823Z,18.70
2018-05-23T02:57:42.078Z,18.57
2018-05-23T03:00:09.573Z,17.57
2018-05-23T03:02:37.065Z,16.57
2018-05-23T03:05:04.513Z,17.37
2018-05-23T03:07:31.983Z,20.00
2018-05-23T03:09:59.469Z,20.27
2018-05-23T03:12:26.948Z,18.53
2018-05-23T03:14:55.203Z,19.00
2018-05-23T03:17:22.664Z,19.70
2018-05-23T03:19:50.144Z,17.50
2018-05-23T03:22:18.431Z,17.37
2018-05-23T03:24:46.677Z,16.87
2018-05-23T03:27:14.160Z,16.40
2018-05-23T03:29:42.382Z,17.20
2018-05-23T03:32:09.854Z,18.23
2018-05-23T03:34:37.309Z,19.23
2018-05-23T03:37:04.801Z,16.80
2018-05-23T03:39:33.037Z,16.97
2018-05-23T03:42:00.533Z,18.80
2018-05-23T03:44:28.753Z,23.43
2018-05-23T03:46:56.242Z,21.07
2018-05-23T03:49:23.753Z,17.47
2018-05-23T03:51:51.237Z,20.90
2018-05-23T03:54:18.708Z,20.43
2018-05-23T03:56:46.159Z,18.63
2018-05-23T03:59:13.657Z,20.40
2018-05-23T04:01:53.799Z,20.87
2018-05-23T04:04:33.201Z,21.77
2018-05-23T04:10:05.821Z,24.13
2018-05-23T04:12:33.311Z,21.73
2018-05-23T04:15:01.541Z,24.20
2018-05-23T04:17:29.051Z,16.90
2018-05-23T04:19:56.535Z,22.03
2018-05-23T04:22:24.013Z,20.23
2018-05-23T04:24:51.503Z,24.83
2018-05-23T04:27:18.976Z,22.53
2018-05-23T04:29:46.451Z,28.90
2018-05-23T04:32:13.931Z,27.87
2018-05-23T04:34:41.395Z,30.13
2018-05-23T04:37:08.877Z,33.07
2018-05-23T04:39:36.370Z,31.53
2018-05-23T04:42:03.856Z,35.03
2018-05-23T04:44:31.317Z,34.10
2018-05-23T04:46:58.772Z,40.80
2018-05-23T04:49:26.259Z,45.20
2018-05-23T04:51:53.747Z,45.67
2018-05-23T04:54:21.996Z,49.63
2018-05-23T04:56:49.462Z,50.60
2018-05-23T04:59:16.946Z,46.47
2018-05-23T05:01:44.426Z,48.17
2018-05-23T05:04:12.650Z,49.33
2018-05-23T05:06:40.164Z,45.17
2018-05-23T05:09:07.648Z,51.47
2018-05-23T05:11:35.101Z,55.03
2018-05-23T05:14:02.601Z,46.40
2018-05-23T05:16:30.834Z,48.53
2018-05-23T05:18:58.314Z,52.10
2018-05-23T05:21:25.789Z,54.73
2018-05-23T05:23:54.049Z,53.10
2018-05-23T05:26:21.535Z,49.57
2018-05-23T05:28:49.025Z,48.20
2018-05-23T05:31:17.269Z,50.30
2018-05-23T05:33:44.724Z,49.93
2018-05-23T05:36:12.212Z,53.77
2018-05-23T05:38:39.681Z,52.00
2018-05-23T05:41:07.155Z,50.03
2018-05-23T05:43:34.637Z,53.07
2018-05-23T05:46:02.874Z,47.83
2018-05-23T05:48:30.369Z,46.03
2018-05-23T05:50:57.816Z,45.57
2018-05-23T05:53:25.273Z,47.60
2018-05-23T05:55:52.727Z,46.93
2018-05-23T05:58:20.225Z,42.90
2018-05-23T06:00:47.713Z,47.30
2018-05-23T06:03:15.197Z,43.00
2018-05-23T06:05:42.693Z,42.17
2018-05-23T06:08:10.156Z,46.90
2018-05-23T06:10:37.654Z,43.20
2018-05-23T06:13:05.123Z,37.97
2018-05-23T06:15:32.608Z,29.97
2018-05-23T06:18:00.832Z,32.37
2018-05-23T06:20:28.289Z,27.43
2018-05-23T06:22:55.792Z,25.17
2018-05-23T06:25:23.257Z,24.60
2018-05-23T06:27:50.743Z,23.07
2018-05-23T06:30:18.241Z,27.33
2018-05-23T06:32:45.693Z,32.47
2018-05-23T06:35:13.157Z,37.00
2018-05-23T06:37:40.721Z,30.03
2018-05-23T06:40:08.853Z,25.50
2018-05-23T06:42:36.342Z,26.30
2018-05-23T06:45:03.806Z,25.00
2018-05-23T06:47:31.309Z,27.17
2018-05-23T06:49:59.551Z,26.00
2018-05-23T06:52:27.020Z,27.00
2018-05-23T06:54:55.252Z,23.63
2018-05-23T06:57:22.742Z,27.03
2018-05-23T06:59:50.221Z,31.73
2018-05-23T07:02:17.681Z,25.00
2018-05-23T07:04:45.930Z,27.23
2018-05-23T07:07:13.407Z,25.80
2018-05-23T07:09:41.655Z,24.27
2018-05-23T07:12:09.113Z,29.00
2018-05-23T07:14:36.580Z,28.70
2018-05-23T07:17:04.069Z,26.70
2018-05-23T07:19:32.304Z,28.10
2018-05-23T07:21:59.759Z,29.10
2018-05-23T07:24:27.246Z,29.23
2018-05-23T07:26:55.495Z,31.90
2018-05-23T07:29:22.982Z,32.40
2018-05-23T07:31:51.217Z,31.00
2018-05-23T07:34:18.705Z,32.30
2018-05-23T07:36:46.173Z,29.43
2018-05-23T07:39:14.417Z,29.90
2018-05-23T07:41:42.051Z,25.80
2018-05-23T07:44:09.554Z,28.17
2018-05-23T07:46:37.051Z,29.33
2018-05-23T07:49:04.551Z,30.00
2018-05-23T07:51:32.023Z,28.83
2018-05-23T07:53:59.496Z,31.50
2018-05-23T07:56:27.753Z,28.30
2018-05-23T07:58:55.222Z,25.73
2018-05-23T08:01:23.480Z,31.07
2018-05-23T08:03:50.974Z,29.53
2018-05-23T08:06:19.247Z,29.00
2018-05-23T08:08:47.513Z,29.50
2018-05-23T08:11:15.736Z,40.30
2018-05-23T08:13:43.238Z,39.97
2018-05-23T08:16:10.748Z,34.57
2018-05-23T08:18:38.230Z,27.83
2018-05-23T08:21:05.713Z,27.83
2018-05-23T08:23:33.962Z,33.30
2018-05-23T08:26:01.417Z,26.50
2018-05-23T08:28:28.912Z,29.77
2018-05-23T08:30:56.425Z,28.00
2018-05-23T08:33:23.870Z,24.40
2018-05-23T08:35:51.372Z,23.97
2018-05-23T08:38:18.830Z,24.27
2018-05-23T08:40:46.294Z,24.57
2018-05-23T08:43:14.521Z,25.43
2018-05-23T08:45:42.005Z,29.37
2018-05-23T08:48:09.484Z,30.07
2018-05-23T08:50:36.959Z,27.00
2018-05-23T08:53:05.191Z,27.00
2018-05-23T08:55:32.679Z,27.87
2018-05-23T08:58:00.917Z,32.97
2018-05-23T09:00:28.428Z,31.73
2018-05-23T09:02:56.672Z,32.60
2018-05-23T09:05:24.185Z,29.40
2018-05-23T09:07:51.651Z,34.20
2018-05-23T09:10:19.139Z,31.00
2018-05-23T09:12:46.590Z,29.17
2018-05-23T09:15:14.075Z,29.93
2018-05-23T09:17:42.292Z,28.23
2018-05-23T09:20:09.768Z,28.10
2018-05-23T09:22:37.225Z,26.60
2018-05-23T09:25:04.708Z,25.23
2018-05-23T09:27:32.169Z,27.83
2018-05-23T09:29:59.657Z,29.27
2018-05-23T09:32:27.116Z,25.23
2018-05-23T09:34:54.578Z,26.30
2018-05-23T09:37:22.048Z,27.93
2018-05-23T09:39:49.544Z,31.00
2018-05-23T09:42:17.061Z,50.30
2018-05-23T09:44:44.558Z,25.93
2018-05-23T09:47:12.033Z,28.77
2018-05-23T09:49:39.506Z,24.53
2018-05-23T09:52:07.758Z,25.63
2018-05-23T09:54:35.248Z,27.80
2018-05-23T09:57:03.506Z,24.10
2018-05-23T09:59:31.013Z,27.93
2018-05-23T10:01:58.480Z,24.80
2018-05-23T10:04:25.976Z,25.67
2018-05-23T10:06:54.246Z,25.53
2018-05-23T10:09:21.831Z,22.13
2018-05-23T10:11:50.073Z,20.80
2018-05-23T10:14:17.601Z,19.63
2018-05-23T10:16:45.064Z,21.20
2018-05-23T10:19:12.554Z,21.03
2018-05-23T10:21:40.026Z,24.20
2018-05-23T10:24:08.271Z,20.60
2018-05-23T10:26:35.737Z,21.37
2018-05-23T10:29:03.220Z,20.60
2018-05-23T10:31:31.441Z,18.77
2018-05-23T10:33:58.948Z,17.77
2018-05-23T10:36:26.452Z,18.47
2018-05-23T10:38:54.052Z,15.00
2018-05-23T10:41:21.649Z,15.00
2018-05-23T10:43:49.133Z,15.97
2018-05-23T10:46:17.428Z,29.63
2018-05-23T10:48:44.866Z,29.20
2018-05-23T10:51:12.341Z,22.30
2018-05-23T10:53:39.859Z,24.27
2018-05-23T10:56:07.330Z,25.60
2018-05-23T10:58:34.832Z,23.87
2018-05-23T11:01:02.305Z,18.50
2018-05-23T11:03:29.838Z,18.20
2018-05-23T11:05:57.368Z,16.10
2018-05-23T11:08:24.753Z,17.80
2018-05-23T11:10:52.237Z,15.73
2018-05-23T11:13:19.765Z,17.83
2018-05-23T11:15:47.353Z,20.97
2018-05-23T11:18:14.834Z,18.67
2018-05-23T11:20:42.317Z,18.27
2018-05-23T11:23:09.791Z,18.50
2018-05-23T11:25:37.358Z,17.40
2018-05-23T11:28:04.728Z,22.27
2018-05-23T11:30:32.233Z,20.13
2018-05-23T11:32:59.698Z,19.50
2018-05-23T11:35:27.161Z,19.13
2018-05-23T11:37:54.649Z,18.23
2018-05-23T11:40:22.134Z,17.27
2018-05-23T11:42:50.371Z,19.87
2018-05-23T11:45:17.852Z,18.20
2018-05-23T11:47:45.373Z,19.00
2018-05-23T11:50:12.887Z,21.00
2018-05-23T11:52:40.398Z,17.90
2018-05-23T11:55:07.960Z,18.80
2018-05-23T11:57:35.540Z,17.17
2018-05-23T12:00:03.044Z,19.63
2018-05-23T12:02:31.316Z,14.83
2018-05-23T12:04:58.829Z,15.13
2018-05-23T12:07:26.293Z,15.87
2018-05-23T12:09:53.799Z,16.30
2018-05-23T12:12:21.277Z,15.50
2018-05-23T12:14:48.826Z,15.90
2018-05-23T12:17:16.268Z,16.50
2018-05-23T12:19:43.770Z,16.93
2018-05-23T12:22:11.230Z,17.07
2018-05-23T12:24:38.743Z,17.20
2018-05-23T12:27:06.221Z,18.13
2018-05-23T12:29:33.678Z,18.07
2018-05-23T12:32:01.169Z,18.97
2018-05-23T12:34:28.636Z,18.07
2018-05-23T12:36:56.114Z,18.13
2018-05-23T12:39:24.355Z,17.13
2018-05-23T12:41:51.829Z,18.83
2018-05-23T12:44:19.320Z,17.87
2018-05-23T12:46:46.824Z,20.20
2018-05-23T12:49:14.299Z,20.63
2018-05-23T12:51:41.811Z,18.50
2018-05-23T12:54:09.273Z,20.40
2018-05-23T12:56:36.752Z,20.27
2018-05-23T12:59:04.224Z,20.97
2018-05-23T13:01:31.724Z,18.30
2018-05-23T13:03:59.212Z,19.73
2018-05-23T13:06:26.708Z,17.97
2018-05-23T13:08:54.172Z,20.80
2018-05-23T13:11:21.626Z,18.37
2018-05-23T13:13:49.096Z,19.50
2018-05-23T13:16:17.337Z,18.33
2018-05-23T13:18:44.886Z,20.90
2018-05-23T13:21:12.358Z,19.50
2018-05-23T13:23:39.844Z,18.00
2018-05-23T13:26:08.056Z,18.40
2018-05-23T13:28:35.558Z,17.20
2018-05-23T13:31:03.032Z,17.70
2018-05-23T13:33:31.274Z,19.43
2018-05-23T13:35:58.720Z,24.77
2018-05-23T13:38:26.173Z,21.40
2018-05-23T13:40:53.666Z,20.50
2018-05-23T13:43:21.137Z,21.17
2018-05-23T13:45:48.629Z,22.60
2018-05-23T13:48:16.105Z,22.27
2018-05-23T13:50:43.557Z,22.77
2018-05-23T13:53:11.069Z,22.57
2018-05-23T13:55:38.532Z,22.70
2018-05-23T13:58:06.843Z,21.67
2018-05-23T14:00:34.333Z,22.30
2018-05-23T14:03:01.815Z,21.50
2018-05-23T14:05:29.293Z,20.07
2018-05-23T14:07:56.748Z,20.83
2018-05-23T14:10:24.248Z,21.80
2018-05-23T14:12:51.731Z,19.37
2018-05-23T14:15:19.225Z,21.40
2018-05-23T14:17:47.669Z,19.43
2018-05-23T14:20:15.126Z,18.30
2018-05-23T14:22:42.613Z,19.07
2018-05-23T14:25:10.846Z,17.63
2018-05-23T14:27:38.356Z,17.43
2018-05-23T14:30:06.568Z,15.70
2018-05-23T14:32:34.133Z,17.97
2018-05-23T14:35:01.639Z,16.87
2018-05-23T14:37:29.913Z,16.83
2018-05-23T14:39:58.171Z,19.40
2018-05-23T14:42:25.624Z,19.07
2018-05-23T14:44:53.103Z,17.23
2018-05-23T14:47:21.449Z,18.00
2018-05-23T14:49:48.936Z,18.73
2018-05-23T14:52:17.312Z,17.40
2018-05-23T14:54:45.632Z,16.70
2018-05-23T14:57:13.175Z,15.80
2018-05-23T14:59:40.995Z,17.00
2018-05-23T15:02:08.557Z,16.27
2018-05-23T15:04:36.367Z,17.00
2018-05-23T15:07:03.879Z,15.43
2018-05-23T15:09:31.395Z,19.37
2018-05-23T15:11:58.957Z,21.53
2018-05-23T15:14:27.619Z,18.30
2018-05-23T15:16:55.097Z,19.83
2018-05-23T15:19:22.564Z,18.20
2018-05-23T15:21:50.069Z,17.70
2018-05-23T15:24:17.560Z,16.73
2018-05-23T15:26:45.086Z,14.50
2018-05-23T15:29:13.304Z,14.07
2018-05-23T15:31:40.785Z,14.80
2018-05-23T15:34:08.320Z,15.33
2018-05-23T15:36:35.770Z,15.90
2018-05-23T15:39:03.293Z,15.10
2018-05-23T15:41:30.784Z,19.37
2018-05-23T15:43:58.257Z,14.40
2018-05-23T15:46:25.774Z,13.67
2018-05-23T15:48:54.005Z,14.10
2018-05-23T15:51:21.521Z,16.00
2018-05-23T15:53:48.987Z,14.93
2018-05-23T15:56:16.478Z,16.63
2018-05-23T15:58:43.960Z,16.33
2018-05-23T16:01:11.477Z,13.10
2018-05-23T16:03:38.998Z,14.27
2018-05-23T16:06:07.252Z,12.13
2018-05-23T16:08:34.734Z,14.93
2018-05-23T16:11:02.985Z,11.77
2018-05-23T16:13:30.436Z,16.20
2018-05-23T16:15:57.888Z,13.50
2018-05-23T16:18:25.375Z,12.43
2018-05-23T16:20:52.846Z,13.50
2018-05-23T16:23:21.184Z,12.20
2018-05-23T16:25:48.660Z,11.27
2018-05-23T16:28:16.133Z,10.67
2018-05-23T16:30:44.364Z,10.30
2018-05-23T16:33:11.838Z,10.13
2018-05-23T16:35:39.321Z,9.30
2018-05-23T16:38:07.561Z,9.80
2018-05-23T16:40:35.057Z,10.80
2018-05-23T16:43:03.334Z,9.90
2018-05-23T16:45:31.564Z,10.23
2018-05-23T16:47:59.034Z,11.13
2018-05-23T16:50:26.526Z,11.87
2018-05-23T16:52:54.734Z,9.80
2018-05-23T16:55:22.233Z,9.20
2018-05-23T16:57:49.685Z,9.10
2018-05-23T17:00:17.364Z,10.30
2018-05-23T17:02:44.892Z,10.13
2018-05-23T17:05:12.375Z,10.93
2018-05-23T17:07:40.237Z,10.60
2018-05-23T17:10:07.721Z,10.63
2018-05-23T17:12:36.069Z,11.93
2018-05-23T17:15:03.408Z,15.63
2018-05-23T17:17:31.029Z,11.77
2018-05-23T17:19:58.859Z,12.10
2018-05-23T17:22:26.300Z,10.90
2018-05-23T17:24:53.827Z,11.03
2018-05-23T17:27:21.324Z,11.33
2018-05-23T17:29:48.753Z,13.20
2018-05-23T17:32:16.236Z,12.03
2018-05-23T17:34:43.697Z,11.03
2018-05-23T17:37:11.174Z,10.67
2018-05-23T17:39:39.423Z,11.27
2018-05-23T17:42:06.918Z,11.97
2018-05-23T17:44:35.168Z,12.70
2018-05-23T17:47:02.722Z,12.00
2018-05-23T17:49:30.217Z,12.30
2018-05-23T17:51:58.570Z,12.93
2018-05-23T17:54:26.610Z,12.77
2018-05-23T17:56:55.284Z,13.03
2018-05-23T17:59:22.866Z,15.13
2018-05-23T18:01:50.306Z,14.20
2018-05-23T18:04:18.069Z,14.77
2018-05-23T18:06:45.880Z,17.30
2018-05-23T18:09:13.398Z,25.90
2018-05-23T18:11:40.885Z,17.93
2018-05-23T18:14:08.765Z,13.77
2018-05-23T18:16:37.720Z,11.67
2018-05-23T18:19:05.263Z,11.47
2018-05-23T18:21:32.818Z,12.63
2018-05-23T18:24:00.414Z,9.37
2018-05-23T18:26:28.701Z,9.70
2018-05-23T18:28:56.161Z,13.63
2018-05-23T18:31:23.645Z,8.20
2018-05-23T18:33:51.994Z,9.53
2018-05-23T18:36:20.302Z,6.37
2018-05-23T18:38:47.910Z,6.53
2018-05-23T18:41:15.426Z,6.63
2018-05-23T18:43:42.973Z,6.30
2018-05-23T18:46:11.397Z,7.40
2018-05-23T18:48:38.990Z,5.50
2018-05-23T18:51:06.436Z,6.37
2018-05-23T18:53:33.895Z,6.07
2018-05-23T18:56:01.357Z,7.50
2018-05-23T18:58:28.979Z,6.20
2018-05-23T19:00:57.264Z,5.50
2018-05-23T19:03:24.753Z,6.40
2018-05-23T19:05:52.201Z,6.07
2018-05-23T19:08:19.824Z,10.20
2018-05-23T19:10:47.351Z,6.67
2018-05-23T19:13:14.861Z,6.30
2018-05-23T19:15:42.352Z,6.63
2018-05-23T19:18:09.998Z,6.50
2018-05-23T19:20:37.506Z,7.43
2018-05-23T19:23:05.003Z,7.70
2018-05-23T19:25:32.457Z,6.90
2018-05-23T19:28:00.225Z,7.10
2018-05-23T19:30:27.868Z,8.73
2018-05-23T19:32:55.354Z,9.10
2018-05-23T19:35:22.811Z,6.93
2018-05-23T19:37:50.507Z,8.03
2018-05-23T19:40:19.132Z,7.63
2018-05-23T19:42:46.606Z,7.87
2018-05-23T19:45:14.091Z,7.50
2018-05-23T19:47:41.723Z,9.13
2018-05-23T19:50:09.161Z,13.40
2018-05-23T19:52:36.693Z,7.97
2018-05-23T19:55:04.226Z,7.90
2018-05-23T19:57:31.735Z,13.63
2018-05-23T19:59:59.215Z,8.97
2018-05-23T20:02:26.717Z,7.90
2018-05-23T20:04:55.009Z,7.63
2018-05-23T20:07:22.529Z,8.73
2018-05-23T20:09:49.989Z,10.27
2018-05-23T20:12:17.461Z,10.07
2018-05-23T20:14:45.726Z,8.90
2018-05-23T20:17:13.245Z,12.80
2018-05-23T20:19:40.751Z,14.20
2018-05-23T20:22:08.977Z,9.30
2018-05-23T20:24:36.480Z,12.40
2018-05-23T20:27:03.997Z,11.53
2018-05-23T20:29:31.455Z,13.10
2018-05-23T20:31:59.116Z,10.03
2018-05-23T20:34:26.602Z,11.37
2018-05-23T20:36:54.025Z,9.93
2018-05-23T20:39:21.504Z,9.83
2018-05-23T20:41:48.992Z,18.07
2018-05-23T20:44:17.272Z,10.57
2018-05-23T20:46:44.720Z,8.73
2018-05-23T20:49:12.238Z,13.57
2018-05-23T20:51:39.731Z,11.13
2018-05-23T20:54:07.198Z,10.60
2018-05-23T20:56:35.440Z,12.47
2018-05-23T20:59:02.946Z,10.87
2018-05-23T21:01:31.232Z,10.13
2018-05-23T21:03:58.749Z,12.13
2018-05-23T21:06:26.238Z,11.20
2018-05-23T21:08:54.510Z,10.57
2018-05-23T21:11:22.720Z,13.63
2018-05-23T21:13:50.195Z,11.23
2018-05-23T21:16:17.679Z,13.60
2018-05-23T21:18:45.165Z,11.30
2018-05-23T21:21:13.478Z,12.47
2018-05-23T21:23:40.963Z,11.47
2018-05-23T21:26:08.467Z,13.80
2018-05-23T21:28:36.680Z,17.13
2018-05-23T21:31:04.184Z,11.33
2018-05-23T21:33:32.448Z,15.10
2018-05-23T21:35:59.953Z,14.60
2018-05-23T21:38:27.501Z,16.67
2018-05-23T21:40:55.003Z,14.40
2018-05-23T21:43:22.496Z,11.73
2018-05-23T21:45:50.740Z,12.90
2018-05-23T21:48:18.209Z,14.70
2018-05-23T21:50:45.690Z,12.73
2018-05-23T21:53:13.164Z,13.47
2018-05-23T21:55:40.658Z,13.57
2018-05-23T21:58:08.160Z,16.23
2018-05-23T22:00:36.405Z,14.77
2018-05-23T22:03:03.993Z,13.27
2018-05-23T22:05:31.398Z,18.03
2018-05-23T22:07:58.856Z,14.10
2018-05-23T22:10:26.346Z,13.63
2018-05-23T22:12:53.855Z,14.30
2018-05-23T22:15:21.331Z,25.80
2018-05-23T22:17:48.826Z,16.17
2018-05-23T22:20:16.280Z,16.10
2018-05-23T22:22:43.849Z,16.80
2018-05-23T22:25:11.330Z,16.20
2018-05-23T22:27:38.857Z,16.40
2018-05-23T22:30:06.360Z,18.67
2018-05-23T22:32:33.832Z,22.87
2018-05-23T22:35:01.312Z,16.03
2018-05-23T22:37:28.819Z,17.03
2018-05-23T22:39:56.273Z,22.00
2018-05-23T22:42:23.754Z,16.60
2018-05-23T22:44:51.233Z,16.77
2018-05-23T22:47:18.716Z,16.53
2018-05-23T22:49:46.209Z,17.30
2018-05-23T22:52:13.668Z,17.97
2018-05-23T22:54:41.178Z,18.50
2018-05-23T22:57:08.656Z,16.43
2018-05-23T22:59:36.167Z,15.80
2018-05-23T23:02:03.693Z,18.80
2018-05-23T23:04:31.930Z,20.57
2018-05-23T23:06:59.394Z,24.10
2018-05-23T23:09:26.909Z,19.73
2018-05-23T23:11:54.383Z,21.37
2018-05-23T23:14:21.856Z,18.03
2018-05-23T23:16:49.332Z,20.87
2018-05-23T23:19:16.806Z,19.90
2018-05-23T23:21:45.048Z,19.53
2018-05-23T23:24:12.517Z,20.30
2018-05-23T23:26:39.992Z,21.60
2018-05-23T23:29:08.214Z,20.53
2018-05-23T23:31:35.721Z,24.97
2018-05-23T23:34:03.285Z,20.33
2018-05-23T23:36:30.859Z,20.80
2018-05-23T23:38:58.398Z,23.60
2018-05-23T23:41:25.832Z,22.27
2018-05-23T23:43:53.325Z,22.23
2018-05-23T23:46:21.627Z,22.43
2018-05-23T23:48:49.107Z,24.00
2018-05-23T23:51:16.700Z,28.10
2018-05-23T23:53:44.987Z,27.00
2018-05-23T23:56:12.450Z,24.50
2018-05-23T23:58:40.677Z,32.90
